createdAt,value
2023-07-08T00:02:18.591Z,8.67
2023-07-08T00:04:46.567Z,9.97
2023-07-08T00:07:17.840Z,5.97
2023-07-08T00:09:47.160Z,6.70
2023-07-08T00:12:15.158Z,7.13
2023-07-08T00:14:43.168Z,6.57
2023-07-08T00:17:14.392Z,7.43
2023-07-08T00:19:42.468Z,6.23
2023-07-08T00:22:14.146Z,6.73
2023-07-08T00:24:43.292Z,6.37
2023-07-08T00:27:15.175Z,9.03
2023-07-08T00:29:43.236Z,6.13
2023-07-08T00:32:14.794Z,7.43
2023-07-08T00:34:43.226Z,7.27
2023-07-08T00:37:13.895Z,6.90
2023-07-08T00:39:42.511Z,7.27
2023-07-08T00:42:18.844Z,7.33
2023-07-08T00:44:46.977Z,7.03
2023-07-08T00:47:17.148Z,7.33
2023-07-08T00:49:49.458Z,10.40
2023-07-08T00:52:23.910Z,7.80
2023-07-08T00:54:53.474Z,7.03
2023-07-08T00:57:24.526Z,10.00
2023-07-08T00:59:57.161Z,7.90
2023-07-08T01:02:28.614Z,8.30
2023-07-08T01:05:03.727Z,5.47
2023-07-08T01:07:34.204Z,6.10
2023-07-08T01:10:05.907Z,6.87
2023-07-08T01:12:38.917Z,9.17
2023-07-08T01:15:08.848Z,11.37
2023-07-08T01:17:37.082Z,8.57
2023-07-08T01:20:07.812Z,7.27
2023-07-08T01:22:39.248Z,6.63
2023-07-08T01:25:09.482Z,8.87
2023-07-08T01:27:42.043Z,7.00
2023-07-08T01:30:12.327Z,8.97
2023-07-08T01:32:45.355Z,6.30
2023-07-08T01:35:14.663Z,10.67
2023-07-08T01:37:48.718Z,10.43
2023-07-08T01:40:27.626Z,7.63
2023-07-08T01:42:56.249Z,8.10
2023-07-08T01:45:26.707Z,9.13
2023-07-08T01:47:58.702Z,8.00
2023-07-08T01:50:28.211Z,8.97
2023-07-08T01:53:01.238Z,8.40
2023-07-08T01:55:31.447Z,8.80
2023-07-08T01:57:59.972Z,9.70
2023-07-08T02:00:27.905Z,8.77
2023-07-08T02:02:56.018Z,9.63
2023-07-08T02:05:25.083Z,8.80
2023-07-08T02:07:53.103Z,7.40
2023-07-08T02:10:22.562Z,10.90
2023-07-08T02:12:50.578Z,12.70
2023-07-08T02:15:19.032Z,15.07
2023-07-08T02:17:47.021Z,9.30
2023-07-08T02:20:15.118Z,9.07
2023-07-08T02:22:43.112Z,12.37
2023-07-08T02:25:11.385Z,11.73
2023-07-08T02:27:41.268Z,9.10
2023-07-08T02:30:10.111Z,10.13
2023-07-08T02:32:40.196Z,8.47
2023-07-08T02:35:09.372Z,12.07
2023-07-08T02:37:37.429Z,10.67
2023-07-08T02:40:05.850Z,10.57
2023-07-08T02:42:33.780Z,15.50
2023-07-08T02:45:03.393Z,10.37
2023-07-08T02:47:31.314Z,11.63
2023-07-08T02:49:59.694Z,10.37
2023-07-08T02:52:27.686Z,11.00
2023-07-08T02:54:55.595Z,11.37
2023-07-08T02:57:23.710Z,12.10
2023-07-08T02:59:51.811Z,9.17
2023-07-08T03:02:21.185Z,11.03
2023-07-08T03:04:50.968Z,9.43
2023-07-08T03:07:19.543Z,10.73
2023-07-08T03:09:47.591Z,11.37
2023-07-08T03:12:15.579Z,7.37
2023-07-08T03:14:43.510Z,8.90
2023-07-08T03:17:11.622Z,11.43
2023-07-08T03:19:41.137Z,12.03
2023-07-08T03:22:09.042Z,9.93
2023-07-08T03:24:37.527Z,11.37
2023-07-08T03:27:08.938Z,6.93
2023-07-08T03:29:38.211Z,8.10
2023-07-08T03:32:07.571Z,9.10
2023-07-08T03:34:35.623Z,9.83
2023-07-08T03:37:05.577Z,11.07
2023-07-08T03:39:33.944Z,8.03
2023-07-08T03:42:02.579Z,8.63
2023-07-08T03:44:30.603Z,10.47
2023-07-08T03:46:59.067Z,7.37
2023-07-08T03:49:27.596Z,9.17
2023-07-08T03:51:56.547Z,10.10
2023-07-08T03:54:27.423Z,9.97
2023-07-08T03:56:55.543Z,10.70
2023-07-08T03:59:23.469Z,8.40
2023-07-08T04:01:51.590Z,10.77
2023-07-08T04:04:19.814Z,10.17
2023-07-08T04:06:48.059Z,7.30
2023-07-08T04:09:16.105Z,8.00
2023-07-08T04:11:45.629Z,10.53
2023-07-08T04:14:14.702Z,8.50
2023-07-08T04:16:50.715Z,12.63
2023-07-08T04:19:19.068Z,10.77
2023-07-08T04:21:47.740Z,10.03
2023-07-08T04:24:17.664Z,7.80
2023-07-08T04:26:49.939Z,8.40
2023-07-08T04:29:20.248Z,9.07
2023-07-08T04:31:48.195Z,9.83
2023-07-08T04:34:17.633Z,12.10
2023-07-08T04:36:46.543Z,10.30
2023-07-08T04:39:15.385Z,9.33
2023-07-08T04:41:44.900Z,6.30
2023-07-08T04:44:14.881Z,10.70
2023-07-08T04:46:52.267Z,19.57
2023-07-08T04:49:20.781Z,24.23
2023-07-08T04:51:49.372Z,9.83
2023-07-08T04:54:17.481Z,16.70
2023-07-08T04:56:48.235Z,16.70
2023-07-08T04:59:19.970Z,13.77
2023-07-08T05:01:49.967Z,9.90
2023-07-08T05:04:19.958Z,13.00
2023-07-08T05:06:48.455Z,8.70
2023-07-08T05:09:17.712Z,12.73
2023-07-08T05:11:46.416Z,10.90
2023-07-08T05:14:15.265Z,9.93
2023-07-08T05:16:44.575Z,10.63
2023-07-08T05:19:12.767Z,8.20
2023-07-08T05:21:40.784Z,8.20
2023-07-08T05:24:09.654Z,10.60
2023-07-08T05:26:37.849Z,8.53
2023-07-08T05:29:06.237Z,12.30
2023-07-08T05:34:09.041Z,9.63
2023-07-08T05:36:37.063Z,8.60
2023-07-08T05:39:05.337Z,7.90
2023-07-08T05:41:33.332Z,10.90
2023-07-08T05:44:01.487Z,8.97
2023-07-08T05:46:29.660Z,10.33
2023-07-08T05:48:59.723Z,8.20
2023-07-08T05:51:31.494Z,10.43
2023-07-08T05:53:59.780Z,9.53
2023-07-08T05:56:27.774Z,7.13
2023-07-08T05:58:55.857Z,10.70
2023-07-08T06:01:23.986Z,9.30
2023-07-08T06:03:52.208Z,8.97
2023-07-08T06:06:20.578Z,9.27
2023-07-08T06:08:49.967Z,10.13
2023-07-08T06:11:18.282Z,12.87
2023-07-08T06:13:46.478Z,8.43
2023-07-08T06:16:18.227Z,13.30
2023-07-08T06:18:51.174Z,10.03
2023-07-08T06:21:19.318Z,10.97
2023-07-08T06:23:47.438Z,8.50
2023-07-08T06:26:16.913Z,8.97
2023-07-08T06:28:45.126Z,7.53
2023-07-08T06:31:13.105Z,10.53
2023-07-08T06:33:41.179Z,10.23
2023-07-08T06:36:09.182Z,7.40
2023-07-08T06:38:37.293Z,8.33
2023-07-08T06:41:05.247Z,10.57
2023-07-08T06:43:34.535Z,12.03
2023-07-08T06:46:02.663Z,8.93
2023-07-08T06:48:30.867Z,13.23
2023-07-08T06:50:59.318Z,7.83
2023-07-08T06:53:27.686Z,11.60
2023-07-08T06:55:55.782Z,8.37
2023-07-08T06:58:23.909Z,10.83
2023-07-08T07:00:53.537Z,7.47
2023-07-08T07:03:21.596Z,9.60
2023-07-08T07:05:49.498Z,12.90
2023-07-08T07:08:17.439Z,10.67
2023-07-08T07:10:45.632Z,8.43
2023-07-08T07:13:13.562Z,10.53
2023-07-08T07:15:41.990Z,10.00
2023-07-08T07:18:11.585Z,8.40
2023-07-08T07:20:40.215Z,9.20
2023-07-08T07:23:08.232Z,11.50
2023-07-08T07:25:37.354Z,14.50
2023-07-08T07:28:06.198Z,10.23
2023-07-08T07:30:34.438Z,10.30
2023-07-08T07:33:02.899Z,12.53
2023-07-08T07:35:32.454Z,13.47
2023-07-08T07:38:00.401Z,11.00
2023-07-08T07:40:28.470Z,8.50
2023-07-08T07:42:56.383Z,10.20
2023-07-08T07:45:24.469Z,10.87
2023-07-08T07:47:52.537Z,9.60
2023-07-08T07:50:20.798Z,11.17
2023-07-08T07:52:50.317Z,10.57
2023-07-08T07:55:18.580Z,10.20
2023-07-08T07:57:48.157Z,7.57
2023-07-08T08:00:16.934Z,8.93
2023-07-08T08:02:45.305Z,9.33
2023-07-08T08:05:13.260Z,11.03
2023-07-08T08:07:41.745Z,9.30
2023-07-08T08:10:11.802Z,10.27
2023-07-08T08:12:52.138Z,10.47
2023-07-08T08:15:22.463Z,13.20
2023-07-08T08:17:53.095Z,7.77
2023-07-08T08:20:22.708Z,10.13
2023-07-08T08:22:51.200Z,9.90
2023-07-08T08:25:23.266Z,11.97
2023-07-08T08:27:52.817Z,10.37
2023-07-08T08:30:21.376Z,10.80
2023-07-08T08:32:49.689Z,8.30
2023-07-08T08:35:17.939Z,8.50
2023-07-08T08:37:46.045Z,8.90
2023-07-08T08:40:19.749Z,8.27
2023-07-08T08:42:55.546Z,6.90
2023-07-08T08:45:26.721Z,7.57
2023-07-08T08:48:00.390Z,9.70
2023-07-08T08:50:32.551Z,9.90
2023-07-08T08:53:04.775Z,10.07
2023-07-08T08:55:33.415Z,7.77
2023-07-08T08:58:12.465Z,9.67
2023-07-08T09:00:49.617Z,7.97
2023-07-08T09:03:20.523Z,9.87
2023-07-08T09:05:49.613Z,8.87
2023-07-08T09:08:25.643Z,8.60
2023-07-08T09:11:02.281Z,10.60
2023-07-08T09:13:35.554Z,7.63
2023-07-08T09:16:09.612Z,8.27
2023-07-08T09:18:46.456Z,8.00
2023-07-08T09:21:21.683Z,8.30
2023-07-08T09:23:52.593Z,5.90
2023-07-08T09:26:24.831Z,8.77
2023-07-08T09:28:54.360Z,11.03
2023-07-08T09:31:26.399Z,6.30
2023-07-08T09:33:56.442Z,7.57
2023-07-08T09:36:26.733Z,6.70
2023-07-08T09:38:55.581Z,10.63
2023-07-08T09:41:35.327Z,11.80
2023-07-08T09:44:16.317Z,6.67
2023-07-08T09:46:45.053Z,6.83
2023-07-08T09:49:23.640Z,6.60
2023-07-08T09:51:52.557Z,11.60
2023-07-08T09:54:21.528Z,12.50
2023-07-08T09:57:00.326Z,9.27
2023-07-08T09:59:35.852Z,5.70
2023-07-08T10:02:18.731Z,6.97
2023-07-08T10:04:46.691Z,7.90
2023-07-08T10:07:19.145Z,7.17
2023-07-08T10:09:50.901Z,5.13
2023-07-08T10:12:19.497Z,7.83
2023-07-08T10:14:54.102Z,5.90
2023-07-08T10:17:23.735Z,9.57
2023-07-08T10:19:52.116Z,5.67
2023-07-08T10:22:37.293Z,6.23
2023-07-08T10:25:19.730Z,5.27
2023-07-08T10:27:54.803Z,4.17
2023-07-08T10:30:27.447Z,4.87
2023-07-08T10:33:22.501Z,4.80
2023-07-08T10:36:12.681Z,6.73
2023-07-08T10:38:57.804Z,7.23
2023-07-08T10:41:38.149Z,3.67
2023-07-08T10:44:14.662Z,5.00
2023-07-08T10:47:03.926Z,3.43
2023-07-08T10:49:43.294Z,3.57
2023-07-08T10:52:27.136Z,3.80
2023-07-08T10:55:07.689Z,4.00
2023-07-08T10:57:54.645Z,3.73
2023-07-08T11:00:30.581Z,4.93
2023-07-08T11:03:22.525Z,7.40
2023-07-08T11:05:58.888Z,5.37
2023-07-08T11:08:31.058Z,4.40
2023-07-08T11:11:14.842Z,3.50
2023-07-08T11:13:50.348Z,4.77
2023-07-08T11:16:26.511Z,3.50
2023-07-08T11:19:03.693Z,5.90
2023-07-08T11:21:37.706Z,5.03
2023-07-08T11:24:13.754Z,5.50
2023-07-08T11:26:48.381Z,6.10
2023-07-08T11:29:21.151Z,5.50
2023-07-08T11:31:51.025Z,6.27
2023-07-08T11:34:22.210Z,7.17
2023-07-08T11:36:51.309Z,5.33
2023-07-08T11:39:31.099Z,7.10
2023-07-08T11:42:13.692Z,5.10
2023-07-08T11:44:45.336Z,7.17
2023-07-08T11:47:18.994Z,5.67
2023-07-08T11:49:49.659Z,6.53
2023-07-08T11:52:21.162Z,6.00
2023-07-08T11:54:56.790Z,7.03
2023-07-08T11:57:32.104Z,11.87
2023-07-08T12:00:17.790Z,6.43
2023-07-08T12:02:56.230Z,9.67
2023-07-08T12:05:36.721Z,6.30
2023-07-08T12:08:13.653Z,5.80
2023-07-08T12:10:44.758Z,5.90
2023-07-08T12:13:16.784Z,9.10
2023-07-08T12:15:44.867Z,9.20
2023-07-08T12:18:17.416Z,8.17
2023-07-08T12:20:50.491Z,8.80
2023-07-08T12:23:22.995Z,8.07
2023-07-08T12:25:52.110Z,8.40
2023-07-08T12:28:21.361Z,8.13
2023-07-08T12:30:50.407Z,9.70
2023-07-08T12:33:24.218Z,7.33
2023-07-08T12:35:54.016Z,10.80
2023-07-08T12:38:29.404Z,11.20
2023-07-08T12:40:59.440Z,6.53
2023-07-08T12:43:28.519Z,6.97
2023-07-08T12:45:56.450Z,4.97
2023-07-08T12:48:24.939Z,5.70
2023-07-08T12:50:54.432Z,6.63
2023-07-08T12:53:22.381Z,8.30
2023-07-08T12:55:54.116Z,5.50
2023-07-08T12:58:28.565Z,8.10
2023-07-08T13:00:59.249Z,6.70
2023-07-08T13:03:31.578Z,5.50
2023-07-08T13:06:03.382Z,4.90
2023-07-08T13:08:40.063Z,6.27
2023-07-08T13:11:09.127Z,10.03
2023-07-08T13:13:40.564Z,5.83
2023-07-08T13:16:11.572Z,5.57
2023-07-08T13:18:42.285Z,14.33
2023-07-08T13:21:15.408Z,9.03
2023-07-08T13:23:43.985Z,9.70
2023-07-08T13:26:16.616Z,5.70
2023-07-08T13:28:46.395Z,7.97
2023-07-08T13:31:22.971Z,6.87
2023-07-08T13:33:54.565Z,6.30
2023-07-08T13:36:25.732Z,7.33
2023-07-08T13:38:54.255Z,5.83
2023-07-08T13:41:24.637Z,7.27
2023-07-08T13:43:53.043Z,4.73
2023-07-08T13:46:32.238Z,7.20
2023-07-08T13:49:04.623Z,7.70
2023-07-08T13:51:35.121Z,12.73
2023-07-08T13:54:11.179Z,9.27
2023-07-08T13:56:39.413Z,7.77
2023-07-08T13:59:09.014Z,6.30
2023-07-08T14:01:41.407Z,4.73
2023-07-08T14:04:11.873Z,14.83
2023-07-08T14:06:42.625Z,6.87
2023-07-08T14:09:16.412Z,4.63
2023-07-08T14:11:44.801Z,7.30
2023-07-08T14:14:13.207Z,9.17
2023-07-08T14:16:44.436Z,7.00
2023-07-08T14:19:17.922Z,7.47
2023-07-08T14:21:47.394Z,6.60
2023-07-08T14:24:16.918Z,5.47
2023-07-08T14:26:46.726Z,9.77
2023-07-08T14:29:15.582Z,9.57
2023-07-08T14:31:44.426Z,15.67
2023-07-08T14:34:19.203Z,15.20
2023-07-08T14:36:48.651Z,23.57
2023-07-08T14:39:18.200Z,10.53
2023-07-08T14:41:48.530Z,9.67
2023-07-08T14:44:23.369Z,8.00
2023-07-08T14:46:52.822Z,6.30
2023-07-08T14:49:22.798Z,5.13
2023-07-08T14:51:53.151Z,6.60
2023-07-08T14:54:22.126Z,5.30
2023-07-08T14:56:51.604Z,7.13
2023-07-08T14:59:23.129Z,4.90
2023-07-08T15:01:51.681Z,4.50
2023-07-08T15:04:20.386Z,5.47
2023-07-08T15:06:48.952Z,4.83
2023-07-08T15:09:19.198Z,13.70
2023-07-08T15:11:48.838Z,4.90
2023-07-08T15:14:21.962Z,3.80
2023-07-08T15:16:51.351Z,12.27
2023-07-08T15:19:19.897Z,10.50
2023-07-08T15:21:48.722Z,7.97
2023-07-08T15:24:18.664Z,5.63
2023-07-08T15:26:48.908Z,7.53
2023-07-08T15:29:19.387Z,5.27
2023-07-08T15:31:47.526Z,9.60
2023-07-08T15:34:16.868Z,7.83
2023-07-08T15:36:44.803Z,4.23
2023-07-08T15:39:14.550Z,4.47
2023-07-08T15:41:45.105Z,8.00
2023-07-08T15:44:14.269Z,4.33
2023-07-08T15:46:43.920Z,8.60
2023-07-08T15:49:16.698Z,3.67
2023-07-08T15:51:47.574Z,6.67
2023-07-08T15:54:17.552Z,5.47
2023-07-08T15:56:48.064Z,11.80
2023-07-08T15:59:19.997Z,8.57
2023-07-08T16:01:47.972Z,5.00
2023-07-08T16:04:24.919Z,4.03
2023-07-08T16:06:53.314Z,5.10
2023-07-08T16:09:21.430Z,4.17
2023-07-08T16:11:50.950Z,4.50
2023-07-08T16:14:20.369Z,5.50
2023-07-08T16:16:48.429Z,4.83
2023-07-08T16:19:17.031Z,9.73
2023-07-08T16:21:47.078Z,7.53
2023-07-08T16:24:15.096Z,4.93
2023-07-08T16:26:43.383Z,5.80
2023-07-08T16:29:18.056Z,4.57
2023-07-08T16:31:46.116Z,3.60
2023-07-08T16:34:15.736Z,5.10
2023-07-08T16:36:43.689Z,7.37
2023-07-08T16:39:11.670Z,3.57
2023-07-08T16:41:39.997Z,8.10
2023-07-08T16:44:17.085Z,5.60
2023-07-08T16:46:45.380Z,7.03
2023-07-08T16:49:13.687Z,9.30
2023-07-08T16:51:41.739Z,5.27
2023-07-08T16:54:15.533Z,7.80
2023-07-08T16:56:43.809Z,25.03
2023-07-08T16:59:13.055Z,5.23
2023-07-08T17:01:42.553Z,5.40
2023-07-08T17:04:13.571Z,8.10
2023-07-08T17:06:41.927Z,5.37
2023-07-08T17:09:12.410Z,4.23
2023-07-08T17:11:40.551Z,5.63
2023-07-08T17:14:10.218Z,4.63
2023-07-08T17:16:39.640Z,5.13
2023-07-08T17:19:11.984Z,4.40
2023-07-08T17:21:40.027Z,3.90
2023-07-08T17:24:11.624Z,7.20
2023-07-08T17:26:39.758Z,9.80
2023-07-08T17:29:07.610Z,13.67
2023-07-08T17:31:47.212Z,3.97
2023-07-08T17:34:22.292Z,5.00
2023-07-08T17:36:50.928Z,4.30
2023-07-08T17:39:19.058Z,4.47
2023-07-08T17:41:50.466Z,3.67
2023-07-08T17:44:18.762Z,8.27
2023-07-08T17:46:47.310Z,4.00
2023-07-08T17:49:16.563Z,4.53
2023-07-08T17:51:45.866Z,5.90
2023-07-08T17:54:15.940Z,3.83
2023-07-08T17:56:48.554Z,6.77
2023-07-08T17:59:19.204Z,10.13
2023-07-08T18:01:47.629Z,11.00
2023-07-08T18:04:15.614Z,8.80
2023-07-08T18:06:47.606Z,5.57
2023-07-08T18:09:15.571Z,7.90
2023-07-08T18:11:46.436Z,10.63
2023-07-08T18:14:15.436Z,9.10
2023-07-08T18:16:45.097Z,6.00
2023-07-08T18:21:57.710Z,12.40
2023-07-08T18:24:25.671Z,13.60
2023-07-08T18:26:53.600Z,8.17
2023-07-08T18:29:22.774Z,9.03
2023-07-08T18:31:51.017Z,10.57
2023-07-08T18:34:21.788Z,10.00
2023-07-08T18:36:49.749Z,17.87
2023-07-08T18:39:20.162Z,15.97
2023-07-08T18:41:49.530Z,16.63
2023-07-08T18:44:26.815Z,7.90
2023-07-08T18:46:55.516Z,10.50
2023-07-08T18:49:25.616Z,17.63
2023-07-08T18:51:54.146Z,12.10
2023-07-08T18:54:24.145Z,10.87
2023-07-08T18:56:52.139Z,10.33
2023-07-08T18:59:20.794Z,16.00
2023-07-08T19:01:50.921Z,21.90
2023-07-08T19:04:24.379Z,25.00
2023-07-08T19:06:52.405Z,19.63
2023-07-08T19:09:20.554Z,16.57
2023-07-08T19:11:50.149Z,19.87
2023-07-08T19:14:19.324Z,15.53
2023-07-08T19:16:47.959Z,34.90
2023-07-08T19:19:17.918Z,20.17
2023-07-08T19:21:46.642Z,19.70
2023-07-08T19:24:32.012Z,28.40
2023-07-08T19:27:06.582Z,26.97
2023-07-08T19:29:34.499Z,21.73
2023-07-08T19:32:02.661Z,16.87
2023-07-08T19:34:32.791Z,17.23
2023-07-08T19:37:00.916Z,31.20
2023-07-08T19:39:28.787Z,33.23
2023-07-08T19:41:56.951Z,17.70
2023-07-08T19:44:27.658Z,18.80
2023-07-08T19:46:56.880Z,23.43
2023-07-08T19:49:25.456Z,48.77
2023-07-08T19:51:53.664Z,46.13
2023-07-08T19:54:22.577Z,24.00
2023-07-08T19:56:50.811Z,39.70
2023-07-08T19:59:19.249Z,41.20
2023-07-08T20:01:48.746Z,22.40
2023-07-08T20:04:17.956Z,23.47
2023-07-08T20:06:46.828Z,21.77
2023-07-08T20:09:16.275Z,21.40
2023-07-08T20:11:44.929Z,21.43
2023-07-08T20:14:13.401Z,20.97
2023-07-08T20:16:43.483Z,31.93
2023-07-08T20:19:21.038Z,32.60
2023-07-08T20:21:49.183Z,34.37
2023-07-08T20:24:17.170Z,35.67
2023-07-08T20:26:45.832Z,15.10
2023-07-08T20:29:18.235Z,15.03
2023-07-08T20:31:46.820Z,27.33
2023-07-08T20:34:18.896Z,23.53
2023-07-08T20:36:48.671Z,24.97
2023-07-08T20:39:22.480Z,17.97
2023-07-08T20:41:50.874Z,21.73
2023-07-08T20:44:20.078Z,15.23
2023-07-08T20:46:49.911Z,12.97
2023-07-08T20:49:19.214Z,18.43
2023-07-08T20:51:48.771Z,12.90
2023-07-08T20:54:16.698Z,14.20
2023-07-08T20:56:45.097Z,15.93
2023-07-08T20:59:17.921Z,14.40
2023-07-08T21:01:46.036Z,11.70
2023-07-08T21:04:14.103Z,15.57
2023-07-08T21:06:42.164Z,11.73
2023-07-08T21:09:14.688Z,9.80
2023-07-08T21:11:42.652Z,11.07
2023-07-08T21:14:10.794Z,11.73
2023-07-08T21:16:39.152Z,11.50
2023-07-08T21:19:07.203Z,9.80
2023-07-08T21:21:35.312Z,9.83
2023-07-08T21:24:03.484Z,10.23
2023-07-08T21:26:34.274Z,8.57
2023-07-08T21:29:04.089Z,12.03
2023-07-08T21:31:32.836Z,11.83
2023-07-08T21:34:00.873Z,10.50
2023-07-08T21:36:33.984Z,9.47
2023-07-08T21:39:05.095Z,11.10
2023-07-08T21:41:35.182Z,9.67
2023-07-08T21:44:03.313Z,11.00
2023-07-08T21:46:31.598Z,10.33
2023-07-08T21:49:00.210Z,10.90
2023-07-08T21:51:31.543Z,9.43
2023-07-08T21:54:00.259Z,10.50
2023-07-08T21:56:28.554Z,12.20
2023-07-08T21:58:58.014Z,9.13
2023-07-08T22:01:28.055Z,11.50
2023-07-08T22:03:57.386Z,8.80
2023-07-08T22:06:26.774Z,9.10
2023-07-08T22:08:55.794Z,12.03
2023-07-08T22:11:30.686Z,9.30
2023-07-08T22:14:00.873Z,9.53
2023-07-08T22:16:30.916Z,12.03
2023-07-08T22:18:59.630Z,8.40
2023-07-08T22:21:30.549Z,9.30
2023-07-08T22:23:59.515Z,8.30
2023-07-08T22:26:28.169Z,10.03
2023-07-08T22:28:56.378Z,9.67
2023-07-08T22:31:29.695Z,11.40
2023-07-08T22:33:58.088Z,6.97
2023-07-08T22:36:26.226Z,7.50
2023-07-08T22:39:01.783Z,13.37
2023-07-08T22:41:32.964Z,9.43
2023-07-08T22:44:01.044Z,11.70
2023-07-08T22:46:30.445Z,9.80
2023-07-08T22:49:01.583Z,6.30
2023-07-08T22:51:32.964Z,11.73
2023-07-08T22:54:01.097Z,13.17
2023-07-08T22:56:29.059Z,7.30
2023-07-08T22:58:56.938Z,8.60
2023-07-08T23:01:24.848Z,8.33
2023-07-08T23:03:54.139Z,10.20
2023-07-08T23:06:25.896Z,8.63
2023-07-08T23:08:54.074Z,6.70
2023-07-08T23:11:22.842Z,9.07
2023-07-08T23:13:51.304Z,7.93
2023-07-08T23:16:31.216Z,12.73
2023-07-08T23:19:02.538Z,13.07
2023-07-08T23:21:31.523Z,10.87
2023-07-08T23:23:59.726Z,12.40
2023-07-08T23:26:31.532Z,6.53
2023-07-08T23:29:01.005Z,7.63
2023-07-08T23:31:30.919Z,8.20
2023-07-08T23:34:01.230Z,8.33
2023-07-08T23:36:34.897Z,7.60
2023-07-08T23:39:06.672Z,8.77
2023-07-08T23:41:34.753Z,10.17
2023-07-08T23:44:02.828Z,8.73
2023-07-08T23:46:33.091Z,9.47
2023-07-08T23:49:05.828Z,10.87
2023-07-08T23:51:33.919Z,10.00
2023-07-08T23:54:01.866Z,9.93
2023-07-08T23:56:34.552Z,10.23
2023-07-08T23:59:04.424Z,7.50
